sensor_id;sensor_type;location;lat;lon;timestamp;P1;durP1;ratioP1;P2;durP2;ratioP2
16906;SDS011;8570;52.380;4.654;2023-06-26T00:02:25;9.25;;;5.13;;
16906;SDS011;8570;52.380;4.654;2023-06-26T00:07:28;10.98;;;4.78;;
16906;SDS011;8570;52.380;4.654;2023-06-26T00:12:34;5.55;;;4.93;;
16906;SDS011;8570;52.380;4.654;2023-06-26T00:17:40;6.38;;;5.45;;
16906;SDS011;8570;52.380;4.654;2023-06-26T00:22:42;6.45;;;5.57;;
16906;SDS011;8570;52.380;4.654;2023-06-26T00:27:45;6.85;;;4.97;;
16906;SDS011;8570;52.380;4.654;2023-06-26T00:32:51;11.68;;;5.82;;
16906;SDS011;8570;52.380;4.654;2023-06-26T00:37:53;9.88;;;5.35;;
16906;SDS011;8570;52.380;4.654;2023-06-26T00:42:55;8.13;;;5.00;;
16906;SDS011;8570;52.380;4.654;2023-06-26T00:47:59;9.32;;;5.90;;
16906;SDS011;8570;52.380;4.654;2023-06-26T00:53:07;11.48;;;5.88;;
16906;SDS011;8570;52.380;4.654;2023-06-26T00:58:11;10.88;;;5.63;;
16906;SDS011;8570;52.380;4.654;2023-06-26T01:03:14;9.68;;;5.68;;
16906;SDS011;8570;52.380;4.654;2023-06-26T01:08:16;9.98;;;5.32;;
16906;SDS011;8570;52.380;4.654;2023-06-26T01:13:20;14.07;;;6.50;;
16906;SDS011;8570;52.380;4.654;2023-06-26T01:18:26;11.07;;;6.22;;
16906;SDS011;8570;52.380;4.654;2023-06-26T01:23:35;11.57;;;6.00;;
16906;SDS011;8570;52.380;4.654;2023-06-26T01:28:42;19.23;;;6.22;;
16906;SDS011;8570;52.380;4.654;2023-06-26T01:33:45;14.77;;;5.95;;
16906;SDS011;8570;52.380;4.654;2023-06-26T01:38:48;15.05;;;6.05;;
16906;SDS011;8570;52.380;4.654;2023-06-26T01:44:00;14.68;;;5.47;;
16906;SDS011;8570;52.380;4.654;2023-06-26T01:49:09;18.88;;;6.53;;
16906;SDS011;8570;52.380;4.654;2023-06-26T01:54:17;23.30;;;6.95;;
16906;SDS011;8570;52.380;4.654;2023-06-26T01:59:24;17.40;;;7.13;;
16906;SDS011;8570;52.380;4.654;2023-06-26T02:04:29;23.13;;;7.20;;
16906;SDS011;8570;52.380;4.654;2023-06-26T02:09:31;22.23;;;7.38;;
16906;SDS011;8570;52.380;4.654;2023-06-26T02:14:35;21.40;;;7.05;;
16906;SDS011;8570;52.380;4.654;2023-06-26T02:19:37;27.92;;;7.93;;
16906;SDS011;8570;52.380;4.654;2023-06-26T02:24:50;21.88;;;7.43;;
16906;SDS011;8570;52.380;4.654;2023-06-26T02:29:53;20.98;;;6.88;;
16906;SDS011;8570;52.380;4.654;2023-06-26T02:34:55;18.73;;;6.93;;
16906;SDS011;8570;52.380;4.654;2023-06-26T02:39:57;18.17;;;6.93;;
16906;SDS011;8570;52.380;4.654;2023-06-26T02:45:01;15.25;;;6.72;;
16906;SDS011;8570;52.380;4.654;2023-06-26T02:50:03;14.02;;;5.88;;
16906;SDS011;8570;52.380;4.654;2023-06-26T02:55:06;12.18;;;5.63;;
16906;SDS011;8570;52.380;4.654;2023-06-26T03:00:10;11.27;;;5.45;;
16906;SDS011;8570;52.380;4.654;2023-06-26T03:05:13;12.43;;;4.88;;
16906;SDS011;8570;52.380;4.654;2023-06-26T03:10:15;9.00;;;4.28;;
16906;SDS011;8570;52.380;4.654;2023-06-26T03:15:18;15.85;;;5.15;;
16906;SDS011;8570;52.380;4.654;2023-06-26T03:20:20;11.60;;;4.82;;
16906;SDS011;8570;52.380;4.654;2023-06-26T03:25:25;10.35;;;4.40;;
16906;SDS011;8570;52.380;4.654;2023-06-26T03:30:31;8.00;;;4.13;;
16906;SDS011;8570;52.380;4.654;2023-06-26T03:35:33;9.52;;;4.22;;
16906;SDS011;8570;52.380;4.654;2023-06-26T03:40:36;8.45;;;4.40;;
16906;SDS011;8570;52.380;4.654;2023-06-26T03:45:39;13.95;;;4.35;;
16906;SDS011;8570;52.380;4.654;2023-06-26T03:50:41;10.15;;;4.13;;
16906;SDS011;8570;52.380;4.654;2023-06-26T03:55:43;11.05;;;3.95;;
16906;SDS011;8570;52.380;4.654;2023-06-26T04:00:47;8.20;;;3.80;;
16906;SDS011;8570;52.380;4.654;2023-06-26T04:05:49;8.20;;;4.40;;
16906;SDS011;8570;52.380;4.654;2023-06-26T04:10:51;7.00;;;3.78;;
16906;SDS011;8570;52.380;4.654;2023-06-26T04:15:58;7.38;;;3.63;;
16906;SDS011;8570;52.380;4.654;2023-06-26T04:21:04;6.38;;;3.25;;
16906;SDS011;8570;52.380;4.654;2023-06-26T04:26:09;6.57;;;3.47;;
16906;SDS011;8570;52.380;4.654;2023-06-26T04:31:14;6.72;;;3.70;;
16906;SDS011;8570;52.380;4.654;2023-06-26T04:36:16;6.78;;;3.40;;
16906;SDS011;8570;52.380;4.654;2023-06-26T04:41:19;6.90;;;3.30;;
16906;SDS011;8570;52.380;4.654;2023-06-26T04:46:24;10.55;;;3.67;;
16906;SDS011;8570;52.380;4.654;2023-06-26T04:51:31;7.57;;;3.30;;
16906;SDS011;8570;52.380;4.654;2023-06-26T04:56:33;6.25;;;2.90;;
16906;SDS011;8570;52.380;4.654;2023-06-26T05:01:36;8.38;;;3.05;;
16906;SDS011;8570;52.380;4.654;2023-06-26T05:06:39;11.27;;;3.60;;
16906;SDS011;8570;52.380;4.654;2023-06-26T05:11:41;5.10;;;3.20;;
16906;SDS011;8570;52.380;4.654;2023-06-26T05:16:47;8.20;;;4.15;;
16906;SDS011;8570;52.380;4.654;2023-06-26T05:21:50;9.80;;;3.38;;
16906;SDS011;8570;52.380;4.654;2023-06-26T05:26:56;7.00;;;3.33;;
16906;SDS011;8570;52.380;4.654;2023-06-26T05:32:00;8.35;;;4.03;;
16906;SDS011;8570;52.380;4.654;2023-06-26T05:37:09;6.90;;;3.53;;
16906;SDS011;8570;52.380;4.654;2023-06-26T05:42:15;11.80;;;3.78;;
16906;SDS011;8570;52.380;4.654;2023-06-26T05:47:19;10.48;;;4.20;;
16906;SDS011;8570;52.380;4.654;2023-06-26T05:52:27;16.00;;;4.40;;
16906;SDS011;8570;52.380;4.654;2023-06-26T05:57:30;12.93;;;3.67;;
16906;SDS011;8570;52.380;4.654;2023-06-26T06:02:34;9.48;;;3.72;;
16906;SDS011;8570;52.380;4.654;2023-06-26T06:07:38;9.82;;;3.63;;
16906;SDS011;8570;52.380;4.654;2023-06-26T06:12:40;12.57;;;3.90;;
16906;SDS011;8570;52.380;4.654;2023-06-26T06:17:47;12.60;;;3.38;;
16906;SDS011;8570;52.380;4.654;2023-06-26T06:22:56;14.18;;;3.63;;
16906;SDS011;8570;52.380;4.654;2023-06-26T06:27:58;12.55;;;3.45;;
16906;SDS011;8570;52.380;4.654;2023-06-26T06:33:01;14.35;;;2.63;;
16906;SDS011;8570;52.380;4.654;2023-06-26T06:38:03;5.97;;;2.30;;
16906;SDS011;8570;52.380;4.654;2023-06-26T06:43:05;12.85;;;2.85;;
16906;SDS011;8570;52.380;4.654;2023-06-26T06:48:11;8.77;;;2.47;;
16906;SDS011;8570;52.380;4.654;2023-06-26T06:53:14;11.00;;;2.22;;
16906;SDS011;8570;52.380;4.654;2023-06-26T06:58:16;8.80;;;2.15;;
16906;SDS011;8570;52.380;4.654;2023-06-26T07:03:22;9.77;;;2.40;;
16906;SDS011;8570;52.380;4.654;2023-06-26T07:08:24;8.98;;;2.30;;
16906;SDS011;8570;52.380;4.654;2023-06-26T07:13:29;10.43;;;2.47;;
16906;SDS011;8570;52.380;4.654;2023-06-26T07:18:32;6.43;;;2.03;;
16906;SDS011;8570;52.380;4.654;2023-06-26T07:23:34;8.27;;;2.47;;
16906;SDS011;8570;52.380;4.654;2023-06-26T07:28:39;10.77;;;2.45;;
16906;SDS011;8570;52.380;4.654;2023-06-26T07:33:46;12.10;;;2.38;;
16906;SDS011;8570;52.380;4.654;2023-06-26T07:38:55;9.23;;;2.40;;
16906;SDS011;8570;52.380;4.654;2023-06-26T07:44:00;10.63;;;2.63;;
16906;SDS011;8570;52.380;4.654;2023-06-26T07:49:07;6.45;;;2.38;;
16906;SDS011;8570;52.380;4.654;2023-06-26T07:54:09;15.35;;;2.90;;
16906;SDS011;8570;52.380;4.654;2023-06-26T07:59:13;14.45;;;2.35;;
16906;SDS011;8570;52.380;4.654;2023-06-26T08:04:17;5.97;;;2.30;;
16906;SDS011;8570;52.380;4.654;2023-06-26T08:09:20;11.27;;;2.78;;
16906;SDS011;8570;52.380;4.654;2023-06-26T08:14:30;8.95;;;2.30;;
16906;SDS011;8570;52.380;4.654;2023-06-26T08:19:34;8.90;;;2.65;;
16906;SDS011;8570;52.380;4.654;2023-06-26T08:24:36;16.80;;;2.35;;
16906;SDS011;8570;52.380;4.654;2023-06-26T08:29:38;10.43;;;2.78;;
16906;SDS011;8570;52.380;4.654;2023-06-26T08:34:41;7.60;;;1.88;;
16906;SDS011;8570;52.380;4.654;2023-06-26T08:39:43;9.40;;;2.00;;
16906;SDS011;8570;52.380;4.654;2023-06-26T08:44:45;9.27;;;2.42;;
16906;SDS011;8570;52.380;4.654;2023-06-26T08:49:50;8.52;;;2.50;;
16906;SDS011;8570;52.380;4.654;2023-06-26T08:54:58;10.05;;;2.17;;
16906;SDS011;8570;52.380;4.654;2023-06-26T09:00:00;8.35;;;1.92;;
16906;SDS011;8570;52.380;4.654;2023-06-26T09:05:04;7.45;;;2.22;;
16906;SDS011;8570;52.380;4.654;2023-06-26T09:10:07;9.00;;;2.45;;
16906;SDS011;8570;52.380;4.654;2023-06-26T09:15:09;8.07;;;2.42;;
16906;SDS011;8570;52.380;4.654;2023-06-26T09:20:16;11.88;;;2.25;;
16906;SDS011;8570;52.380;4.654;2023-06-26T09:25:19;8.90;;;2.20;;
16906;SDS011;8570;52.380;4.654;2023-06-26T09:30:23;6.75;;;2.30;;
16906;SDS011;8570;52.380;4.654;2023-06-26T09:35:28;9.45;;;2.50;;
16906;SDS011;8570;52.380;4.654;2023-06-26T09:40:31;8.55;;;1.90;;
16906;SDS011;8570;52.380;4.654;2023-06-26T09:45:35;5.63;;;2.15;;
16906;SDS011;8570;52.380;4.654;2023-06-26T09:50:39;5.57;;;2.03;;
16906;SDS011;8570;52.380;4.654;2023-06-26T09:55:43;7.90;;;1.85;;
16906;SDS011;8570;52.380;4.654;2023-06-26T10:00:45;10.75;;;2.50;;
16906;SDS011;8570;52.380;4.654;2023-06-26T10:05:49;13.70;;;2.65;;
16906;SDS011;8570;52.380;4.654;2023-06-26T10:10:51;6.03;;;1.98;;
16906;SDS011;8570;52.380;4.654;2023-06-26T10:15:54;6.80;;;1.85;;
16906;SDS011;8570;52.380;4.654;2023-06-26T10:20:59;5.97;;;1.75;;
16906;SDS011;8570;52.380;4.654;2023-06-26T10:26:03;7.20;;;2.25;;
16906;SDS011;8570;52.380;4.654;2023-06-26T10:31:06;11.10;;;2.38;;
16906;SDS011;8570;52.380;4.654;2023-06-26T10:36:14;10.18;;;2.58;;
16906;SDS011;8570;52.380;4.654;2023-06-26T10:41:21;11.18;;;2.67;;
16906;SDS011;8570;52.380;4.654;2023-06-26T10:46:23;8.65;;;2.58;;
16906;SDS011;8570;52.380;4.654;2023-06-26T10:51:27;6.95;;;2.13;;
16906;SDS011;8570;52.380;4.654;2023-06-26T10:56:45;6.60;;;2.45;;
16906;SDS011;8570;52.380;4.654;2023-06-26T11:01:53;8.43;;;2.35;;
16906;SDS011;8570;52.380;4.654;2023-06-26T11:12:35;5.28;;;1.85;;
16906;SDS011;8570;52.380;4.654;2023-06-26T11:17:38;8.90;;;2.00;;
16906;SDS011;8570;52.380;4.654;2023-06-26T11:22:41;8.23;;;2.10;;
16906;SDS011;8570;52.380;4.654;2023-06-26T11:27:45;7.60;;;1.75;;
16906;SDS011;8570;52.380;4.654;2023-06-26T11:32:47;4.65;;;1.50;;
16906;SDS011;8570;52.380;4.654;2023-06-26T11:37:49;6.22;;;2.00;;
16906;SDS011;8570;52.380;4.654;2023-06-26T11:42:52;6.45;;;2.03;;
16906;SDS011;8570;52.380;4.654;2023-06-26T11:47:54;8.68;;;2.30;;
16906;SDS011;8570;52.380;4.654;2023-06-26T11:53:02;4.68;;;1.90;;
16906;SDS011;8570;52.380;4.654;2023-06-26T11:58:06;5.75;;;1.73;;
16906;SDS011;8570;52.380;4.654;2023-06-26T12:03:08;8.57;;;2.00;;
16906;SDS011;8570;52.380;4.654;2023-06-26T12:08:11;8.57;;;1.98;;
16906;SDS011;8570;52.380;4.654;2023-06-26T12:13:17;6.22;;;2.13;;
16906;SDS011;8570;52.380;4.654;2023-06-26T12:18:24;6.70;;;2.00;;
16906;SDS011;8570;52.380;4.654;2023-06-26T12:23:33;5.45;;;1.75;;
16906;SDS011;8570;52.380;4.654;2023-06-26T12:28:45;8.85;;;2.10;;
16906;SDS011;8570;52.380;4.654;2023-06-26T12:33:48;6.97;;;2.20;;
16906;SDS011;8570;52.380;4.654;2023-06-26T12:38:52;5.40;;;1.77;;
16906;SDS011;8570;52.380;4.654;2023-06-26T12:43:57;5.50;;;1.90;;
16906;SDS011;8570;52.380;4.654;2023-06-26T12:48:59;5.82;;;1.95;;
16906;SDS011;8570;52.380;4.654;2023-06-26T12:54:03;7.93;;;1.90;;
16906;SDS011;8570;52.380;4.654;2023-06-26T12:59:06;4.85;;;1.83;;
16906;SDS011;8570;52.380;4.654;2023-06-26T13:04:08;7.70;;;1.95;;
16906;SDS011;8570;52.380;4.654;2023-06-26T13:09:11;10.05;;;1.85;;
16906;SDS011;8570;52.380;4.654;2023-06-26T13:14:15;5.85;;;2.13;;
16906;SDS011;8570;52.380;4.654;2023-06-26T13:19:17;4.05;;;1.80;;
16906;SDS011;8570;52.380;4.654;2023-06-26T13:24:19;4.53;;;2.08;;
16906;SDS011;8570;52.380;4.654;2023-06-26T13:29:23;6.60;;;2.10;;
16906;SDS011;8570;52.380;4.654;2023-06-26T13:34:27;4.95;;;1.80;;
16906;SDS011;8570;52.380;4.654;2023-06-26T13:39:32;5.68;;;1.83;;
16906;SDS011;8570;52.380;4.654;2023-06-26T13:44:39;7.22;;;1.92;;
16906;SDS011;8570;52.380;4.654;2023-06-26T13:49:41;6.85;;;1.80;;
16906;SDS011;8570;52.380;4.654;2023-06-26T13:54:44;6.57;;;2.15;;
16906;SDS011;8570;52.380;4.654;2023-06-26T13:59:47;9.27;;;2.22;;
16906;SDS011;8570;52.380;4.654;2023-06-26T14:04:54;6.75;;;1.92;;
16906;SDS011;8570;52.380;4.654;2023-06-26T14:09:57;2.60;;;1.98;;
16906;SDS011;8570;52.380;4.654;2023-06-26T14:15:01;5.93;;;2.53;;
16906;SDS011;8570;52.380;4.654;2023-06-26T14:20:06;6.25;;;1.98;;
16906;SDS011;8570;52.380;4.654;2023-06-26T14:25:12;5.00;;;1.50;;
16906;SDS011;8570;52.380;4.654;2023-06-26T14:30:16;6.88;;;1.95;;
16906;SDS011;8570;52.380;4.654;2023-06-26T14:35:18;5.90;;;1.80;;
16906;SDS011;8570;52.380;4.654;2023-06-26T14:40:20;7.85;;;2.05;;
16906;SDS011;8570;52.380;4.654;2023-06-26T14:45:24;4.22;;;1.60;;
16906;SDS011;8570;52.380;4.654;2023-06-26T14:50:29;4.55;;;1.77;;
16906;SDS011;8570;52.380;4.654;2023-06-26T14:55:31;5.20;;;1.65;;
16906;SDS011;8570;52.380;4.654;2023-06-26T15:00:34;7.03;;;1.85;;
16906;SDS011;8570;52.380;4.654;2023-06-26T15:05:36;4.78;;;1.50;;
16906;SDS011;8570;52.380;4.654;2023-06-26T15:10:41;8.27;;;2.00;;
16906;SDS011;8570;52.380;4.654;2023-06-26T15:15:45;3.38;;;1.60;;
16906;SDS011;8570;52.380;4.654;2023-06-26T15:20:47;3.92;;;1.65;;
16906;SDS011;8570;52.380;4.654;2023-06-26T15:25:49;4.68;;;1.60;;
16906;SDS011;8570;52.380;4.654;2023-06-26T15:30:52;6.40;;;1.90;;
16906;SDS011;8570;52.380;4.654;2023-06-26T15:35:57;5.53;;;1.90;;
16906;SDS011;8570;52.380;4.654;2023-06-26T15:41:00;3.28;;;1.50;;
16906;SDS011;8570;52.380;4.654;2023-06-26T15:46:12;10.10;;;1.70;;
16906;SDS011;8570;52.380;4.654;2023-06-26T15:51:15;7.80;;;2.00;;
16906;SDS011;8570;52.380;4.654;2023-06-26T15:56:17;3.95;;;1.67;;
16906;SDS011;8570;52.380;4.654;2023-06-26T16:01:22;5.63;;;1.98;;
16906;SDS011;8570;52.380;4.654;2023-06-26T16:06:26;7.68;;;1.98;;
16906;SDS011;8570;52.380;4.654;2023-06-26T16:11:28;4.15;;;1.63;;
16906;SDS011;8570;52.380;4.654;2023-06-26T16:16:32;6.38;;;1.60;;
16906;SDS011;8570;52.380;4.654;2023-06-26T16:21:34;3.45;;;1.80;;
16906;SDS011;8570;52.380;4.654;2023-06-26T16:26:36;4.88;;;1.75;;
16906;SDS011;8570;52.380;4.654;2023-06-26T16:31:41;5.10;;;1.70;;
16906;SDS011;8570;52.380;4.654;2023-06-26T16:36:43;3.65;;;1.48;;
16906;SDS011;8570;52.380;4.654;2023-06-26T16:41:46;4.07;;;1.70;;
16906;SDS011;8570;52.380;4.654;2023-06-26T16:46:55;3.53;;;1.70;;
16906;SDS011;8570;52.380;4.654;2023-06-26T16:51:58;4.25;;;1.83;;
16906;SDS011;8570;52.380;4.654;2023-06-26T16:57:02;7.97;;;1.70;;
16906;SDS011;8570;52.380;4.654;2023-06-26T17:02:06;4.28;;;1.58;;
16906;SDS011;8570;52.380;4.654;2023-06-26T17:07:10;6.78;;;1.80;;
16906;SDS011;8570;52.380;4.654;2023-06-26T17:12:18;3.22;;;1.50;;
16906;SDS011;8570;52.380;4.654;2023-06-26T17:17:23;5.38;;;1.42;;
16906;SDS011;8570;52.380;4.654;2023-06-26T17:22:26;6.72;;;1.83;;
16906;SDS011;8570;52.380;4.654;2023-06-26T17:27:31;8.48;;;1.88;;
16906;SDS011;8570;52.380;4.654;2023-06-26T17:32:35;5.22;;;1.77;;
16906;SDS011;8570;52.380;4.654;2023-06-26T17:37:46;4.43;;;1.70;;
16906;SDS011;8570;52.380;4.654;2023-06-26T17:42:54;3.30;;;1.50;;
16906;SDS011;8570;52.380;4.654;2023-06-26T17:48:14;4.85;;;1.70;;
16906;SDS011;8570;52.380;4.654;2023-06-26T17:53:17;3.47;;;1.65;;
16906;SDS011;8570;52.380;4.654;2023-06-26T17:58:19;5.00;;;1.83;;
16906;SDS011;8570;52.380;4.654;2023-06-26T18:03:22;5.80;;;1.75;;
16906;SDS011;8570;52.380;4.654;2023-06-26T18:08:24;3.65;;;1.63;;
16906;SDS011;8570;52.380;4.654;2023-06-26T18:13:28;5.88;;;1.83;;
16906;SDS011;8570;52.380;4.654;2023-06-26T18:18:33;3.33;;;1.60;;
16906;SDS011;8570;52.380;4.654;2023-06-26T18:23:35;3.15;;;1.70;;
16906;SDS011;8570;52.380;4.654;2023-06-26T18:28:37;14.80;;;2.10;;
16906;SDS011;8570;52.380;4.654;2023-06-26T18:33:43;4.50;;;1.65;;
16906;SDS011;8570;52.380;4.654;2023-06-26T18:38:45;7.20;;;1.73;;
16906;SDS011;8570;52.380;4.654;2023-06-26T18:43:47;3.53;;;1.67;;
16906;SDS011;8570;52.380;4.654;2023-06-26T18:49:00;5.13;;;1.80;;
16906;SDS011;8570;52.380;4.654;2023-06-26T18:54:02;4.82;;;1.85;;
16906;SDS011;8570;52.380;4.654;2023-06-26T18:59:05;3.53;;;1.55;;
16906;SDS011;8570;52.380;4.654;2023-06-26T19:04:08;6.80;;;2.10;;
16906;SDS011;8570;52.380;4.654;2023-06-26T19:09:10;4.25;;;1.90;;
16906;SDS011;8570;52.380;4.654;2023-06-26T19:14:21;4.93;;;2.15;;
16906;SDS011;8570;52.380;4.654;2023-06-26T19:19:25;4.95;;;2.00;;
16906;SDS011;8570;52.380;4.654;2023-06-26T19:24:27;4.10;;;1.95;;
16906;SDS011;8570;52.380;4.654;2023-06-26T19:29:29;3.97;;;2.08;;
16906;SDS011;8570;52.380;4.654;2023-06-26T19:34:38;8.93;;;2.22;;
16906;SDS011;8570;52.380;4.654;2023-06-26T19:39:40;5.20;;;2.30;;
16906;SDS011;8570;52.380;4.654;2023-06-26T19:44:42;3.58;;;2.00;;
16906;SDS011;8570;52.380;4.654;2023-06-26T19:49:47;5.90;;;2.58;;
16906;SDS011;8570;52.380;4.654;2023-06-26T19:54:50;7.65;;;2.40;;
16906;SDS011;8570;52.380;4.654;2023-06-26T19:59:54;7.40;;;2.67;;
16906;SDS011;8570;52.380;4.654;2023-06-26T20:04:58;9.93;;;2.70;;
16906;SDS011;8570;52.380;4.654;2023-06-26T20:10:00;4.88;;;2.50;;
16906;SDS011;8570;52.380;4.654;2023-06-26T20:15:02;7.70;;;2.92;;
16906;SDS011;8570;52.380;4.654;2023-06-26T20:20:07;6.93;;;3.10;;
16906;SDS011;8570;52.380;4.654;2023-06-26T20:25:09;7.65;;;2.60;;
16906;SDS011;8570;52.380;4.654;2023-06-26T20:30:11;10.15;;;3.35;;
16906;SDS011;8570;52.380;4.654;2023-06-26T20:35:16;9.23;;;3.08;;
16906;SDS011;8570;52.380;4.654;2023-06-26T20:40:18;10.25;;;3.13;;
16906;SDS011;8570;52.380;4.654;2023-06-26T20:45:21;10.20;;;3.33;;
16906;SDS011;8570;52.380;4.654;2023-06-26T20:50:27;10.93;;;3.60;;
16906;SDS011;8570;52.380;4.654;2023-06-26T20:55:32;8.75;;;3.25;;
16906;SDS011;8570;52.380;4.654;2023-06-26T21:00:35;11.27;;;3.65;;
16906;SDS011;8570;52.380;4.654;2023-06-26T21:05:38;7.10;;;3.53;;
16906;SDS011;8570;52.380;4.654;2023-06-26T21:10:40;10.90;;;3.65;;
16906;SDS011;8570;52.380;4.654;2023-06-26T21:15:44;9.38;;;3.50;;
16906;SDS011;8570;52.380;4.654;2023-06-26T21:20:47;9.10;;;3.55;;
16906;SDS011;8570;52.380;4.654;2023-06-26T21:25:49;9.40;;;3.50;;
16906;SDS011;8570;52.380;4.654;2023-06-26T21:30:51;10.57;;;3.78;;
16906;SDS011;8570;52.380;4.654;2023-06-26T21:35:55;12.80;;;3.72;;
16906;SDS011;8570;52.380;4.654;2023-06-26T21:40:57;10.60;;;3.53;;
16906;SDS011;8570;52.380;4.654;2023-06-26T21:46:00;8.13;;;3.78;;
16906;SDS011;8570;52.380;4.654;2023-06-26T21:56:21;10.55;;;3.75;;
16906;SDS011;8570;52.380;4.654;2023-06-26T22:01:23;12.15;;;3.72;;
16906;SDS011;8570;52.380;4.654;2023-06-26T22:06:35;11.73;;;3.67;;
16906;SDS011;8570;52.380;4.654;2023-06-26T22:11:38;15.45;;;4.32;;
16906;SDS011;8570;52.380;4.654;2023-06-26T22:16:45;11.88;;;4.13;;
16906;SDS011;8570;52.380;4.654;2023-06-26T22:21:52;11.38;;;3.97;;
16906;SDS011;8570;52.380;4.654;2023-06-26T22:27:02;11.60;;;4.00;;
16906;SDS011;8570;52.380;4.654;2023-06-26T22:32:10;10.18;;;3.65;;
16906;SDS011;8570;52.380;4.654;2023-06-26T22:37:30;17.73;;;4.38;;
16906;SDS011;8570;52.380;4.654;2023-06-26T23:01:38;9.05;;;4.00;;
16906;SDS011;8570;52.380;4.654;2023-06-26T23:09:56;9.65;;;3.67;;
16906;SDS011;8570;52.380;4.654;2023-06-26T23:37:34;11.55;;;3.20;;
